createdAt,value
2023-03-11T00:00:41.408Z,91895.69
2023-03-11T00:03:09.319Z,91910.88
2023-03-11T00:05:38.107Z,91919.75
2023-03-11T00:08:06.284Z,91931.44
2023-03-11T00:10:36.603Z,91906.16
2023-03-11T00:13:04.442Z,91912.69
2023-03-11T00:15:32.204Z,91906.38
2023-03-11T00:17:59.953Z,91895.13
2023-03-11T00:20:29.373Z,91912.34
2023-03-11T00:22:56.677Z,91919.84
2023-03-11T00:25:26.414Z,91902.88
2023-03-11T00:27:54.933Z,91889.06
2023-03-11T00:30:23.519Z,91902.06
2023-03-11T00:32:50.540Z,91903.66
2023-03-11T00:35:20.352Z,91887.09
2023-03-11T00:37:48.306Z,91888.28
2023-03-11T00:40:17.224Z,91886.94
2023-03-11T00:42:44.898Z,91888.28
2023-03-11T00:45:14.766Z,91886.31
2023-03-11T00:47:41.782Z,91883.78
2023-03-11T00:50:12.360Z,91874.50
2023-03-11T00:52:39.442Z,91851.81
2023-03-11T00:55:07.163Z,91852.19
2023-03-11T00:57:34.983Z,91840.56
2023-03-11T01:00:02.688Z,91828.31
2023-03-11T01:02:31.083Z,91832.91
2023-03-11T01:04:58.037Z,91825.41
2023-03-11T01:07:25.080Z,91820.66
2023-03-11T01:09:51.959Z,91828.94
2023-03-11T01:12:18.958Z,91820.88
2023-03-11T01:14:46.211Z,91809.59
2023-03-11T01:17:13.174Z,91809.22
2023-03-11T01:19:41.516Z,91823.22
2023-03-11T01:22:10.192Z,91830.13
2023-03-11T01:24:37.290Z,91820.84
2023-03-11T01:27:04.872Z,91812.00
2023-03-11T01:29:31.980Z,91809.25
2023-03-11T01:31:59.401Z,91827.19
2023-03-11T01:34:26.947Z,91792.47
2023-03-11T01:36:55.264Z,91767.25
2023-03-11T01:39:22.202Z,91757.41
2023-03-11T01:41:49.806Z,91737.69
2023-03-11T01:44:16.817Z,91724.50
2023-03-11T01:47:16.807Z,91716.41
2023-03-11T01:49:43.766Z,91726.84
2023-03-11T01:52:12.293Z,91711.31
2023-03-11T01:54:50.657Z,91719.19
2023-03-11T01:57:18.931Z,91751.69
2023-03-11T01:59:49.260Z,91763.13
2023-03-11T02:02:19.802Z,91772.19
2023-03-11T02:04:47.372Z,91801.34
2023-03-11T02:07:17.141Z,91824.41
2023-03-11T02:09:45.519Z,91819.09
2023-03-11T02:12:14.186Z,91785.03
2023-03-11T02:14:43.934Z,91807.88
2023-03-11T02:17:11.184Z,91798.78
2023-03-11T02:19:46.028Z,91815.75
2023-03-11T02:22:14.147Z,91829.53
2023-03-11T02:24:45.810Z,91827.38
2023-03-11T02:27:17.295Z,91834.06
2023-03-11T02:29:48.181Z,91829.53
2023-03-11T02:32:15.820Z,91805.69
2023-03-11T02:34:44.240Z,91825.78
2023-03-11T02:37:14.660Z,91823.63
2023-03-11T02:39:46.998Z,91812.78
2023-03-11T02:42:19.750Z,91809.81
2023-03-11T02:44:49.573Z,91829.72
2023-03-11T02:47:16.908Z,91828.56
2023-03-11T02:49:44.131Z,91827.78
2023-03-11T02:52:12.984Z,91839.56
2023-03-11T02:54:39.963Z,91851.41
2023-03-11T02:57:06.976Z,91846.09
2023-03-11T02:59:35.325Z,91842.72
2023-03-11T03:02:02.315Z,91844.31
2023-03-11T03:04:29.849Z,91822.63
2023-03-11T03:06:58.836Z,91838.38
2023-03-11T03:09:25.820Z,91833.25
2023-03-11T03:11:52.793Z,91824.97
2023-03-11T03:14:19.807Z,91827.53
2023-03-11T03:16:48.305Z,91823.03
2023-03-11T03:19:15.078Z,91820.66
2023-03-11T03:21:42.232Z,91819.09
2023-03-11T03:24:09.519Z,91818.91
2023-03-11T03:26:36.782Z,91818.31
2023-03-11T03:29:04.464Z,91815.56
2023-03-11T03:31:31.658Z,91806.84
2023-03-11T03:34:01.299Z,91812.72
2023-03-11T03:36:28.448Z,91814.13
2023-03-11T03:39:01.647Z,91815.84
2023-03-11T03:41:32.778Z,91818.00
2023-03-11T03:43:59.867Z,91809.69
2023-03-11T03:46:27.508Z,91810.69
2023-03-11T03:48:57.616Z,91813.84
2023-03-11T03:51:26.564Z,91803.56
2023-03-11T03:54:08.540Z,91797.81
2023-03-11T03:56:36.098Z,91791.09
2023-03-11T03:59:03.140Z,91800.16
2023-03-11T04:01:37.095Z,91796.59
2023-03-11T04:04:05.150Z,91793.22
2023-03-11T04:06:33.532Z,91790.44
2023-03-11T04:09:04.307Z,91799.72
2023-03-11T04:11:34.555Z,91803.06
2023-03-11T04:14:02.839Z,91810.53
2023-03-11T04:16:32.203Z,91805.63
2023-03-11T04:19:05.877Z,91807.75
2023-03-11T04:21:35.495Z,91810.16
2023-03-11T04:24:03.105Z,91811.75
2023-03-11T04:26:34.582Z,91801.28
2023-03-11T04:29:02.279Z,91810.97
2023-03-11T04:31:32.937Z,91804.81
2023-03-11T04:34:03.688Z,91795.13
2023-03-11T04:36:30.905Z,91794.31
2023-03-11T04:38:59.454Z,91803.06
2023-03-11T04:41:30.221Z,91807.75
2023-03-11T04:43:59.436Z,91817.66
2023-03-11T04:46:26.662Z,91819.03
2023-03-11T04:48:53.958Z,91813.09
2023-03-11T04:51:21.037Z,91812.91
2023-03-11T04:53:48.030Z,91823.97
2023-03-11T04:56:16.524Z,91824.53
2023-03-11T04:58:43.569Z,91833.81
2023-03-11T05:01:10.837Z,91831.44
2023-03-11T05:03:38.004Z,91845.69
2023-03-11T05:06:05.762Z,91832.25
2023-03-11T05:08:32.734Z,91833.81
2023-03-11T05:10:59.850Z,91835.59
2023-03-11T05:13:28.885Z,91856.31
2023-03-11T05:15:56.068Z,91839.94
2023-03-11T05:18:23.299Z,91837.72
2023-03-11T05:20:51.789Z,91845.84
2023-03-11T05:23:21.987Z,91848.19
2023-03-11T05:25:49.151Z,91857.66
2023-03-11T05:28:16.321Z,91866.78
2023-03-11T05:30:51.603Z,91870.50
2023-03-11T05:33:19.397Z,91878.00
2023-03-11T05:35:47.111Z,91881.16
2023-03-11T05:38:14.915Z,91879.59
2023-03-11T05:40:42.563Z,91878.41
2023-03-11T05:43:09.887Z,91894.00
2023-03-11T05:45:39.949Z,91886.28
2023-03-11T05:48:08.588Z,91886.88
2023-03-11T05:50:38.091Z,91886.47
2023-03-11T05:53:05.678Z,91885.53
2023-03-11T05:55:32.757Z,91885.75
2023-03-11T05:58:00.634Z,91900.84
2023-03-11T06:00:29.604Z,91896.66
2023-03-11T06:03:17.621Z,91899.25
2023-03-11T06:05:47.187Z,91901.06
2023-03-11T06:08:14.521Z,91910.53
2023-03-11T06:10:41.515Z,91912.31
2023-03-11T06:13:08.610Z,91911.69
2023-03-11T06:15:44.078Z,91914.88
2023-03-11T06:18:10.875Z,91917.03
2023-03-11T06:20:38.505Z,91920.38
2023-03-11T06:23:06.969Z,91919.22
2023-03-11T06:25:33.882Z,91919.22
2023-03-11T06:28:01.312Z,91925.28
2023-03-11T06:30:29.119Z,91927.09
2023-03-11T06:33:05.993Z,91928.25
2023-03-11T06:35:33.089Z,91930.63
2023-03-11T06:38:00.704Z,91919.13
2023-03-11T06:40:29.272Z,91932.16
2023-03-11T06:42:56.003Z,91930.81
2023-03-11T06:45:25.374Z,91926.44
2023-03-11T06:47:53.115Z,91923.88
2023-03-11T06:50:23.731Z,91930.19
2023-03-11T06:52:51.554Z,91936.50
2023-03-11T06:55:18.491Z,91934.91
2023-03-11T06:57:46.911Z,91932.94
2023-03-11T07:00:15.193Z,91934.50
2023-03-11T07:02:46.991Z,91927.97
2023-03-11T07:05:15.883Z,91932.69
2023-03-11T07:07:43.015Z,91942.59
2023-03-11T07:10:11.301Z,91930.75
2023-03-11T07:12:38.279Z,91939.25
2023-03-11T07:15:08.364Z,91933.88
2023-03-11T07:17:36.034Z,91925.78
2023-03-11T07:20:03.561Z,91930.31
2023-03-11T07:22:30.660Z,91927.94
2023-03-11T07:24:57.638Z,91922.41
2023-03-11T07:27:24.643Z,91920.19
2023-03-11T07:29:51.667Z,91916.81
2023-03-11T07:32:20.015Z,91899.72
2023-03-11T07:34:47.053Z,91900.66
2023-03-11T07:37:14.279Z,91893.06
2023-03-11T07:39:41.806Z,91885.44
2023-03-11T07:42:09.003Z,91889.25
2023-03-11T07:44:36.852Z,91892.59
2023-03-11T07:47:03.897Z,91885.59
2023-03-11T07:49:32.537Z,91881.72
2023-03-11T07:51:59.571Z,91885.00
2023-03-11T07:54:26.559Z,91883.69
2023-03-11T07:56:53.792Z,91877.28
2023-03-11T07:59:20.807Z,91864.91
2023-03-11T08:01:47.726Z,91859.38
2023-03-11T08:04:17.237Z,91854.25
2023-03-11T08:06:47.410Z,91860.53
2023-03-11T08:09:14.570Z,91847.78
2023-03-11T08:11:41.749Z,91850.38
2023-03-11T08:14:09.035Z,91841.25
2023-03-11T08:16:36.099Z,91844.91
2023-03-11T08:19:03.414Z,91837.25
2023-03-11T08:21:32.226Z,91818.72
2023-03-11T08:24:02.447Z,91811.03
2023-03-11T08:26:30.714Z,91812.13
2023-03-11T08:28:58.447Z,91807.38
2023-03-11T08:31:28.009Z,91813.22
2023-03-11T08:33:57.607Z,91810.91
2023-03-11T08:36:25.008Z,91818.91
2023-03-11T08:38:52.101Z,91811.22
2023-03-11T08:41:20.760Z,91794.50
2023-03-11T08:43:47.869Z,91797.50
2023-03-11T08:46:18.267Z,91790.47
2023-03-11T08:48:45.270Z,91794.44
2023-03-11T08:51:12.872Z,91785.00
2023-03-11T08:53:39.866Z,91790.81
2023-03-11T08:56:07.297Z,91775.88
2023-03-11T08:58:35.895Z,91772.34
2023-03-11T09:01:03.152Z,91775.59
2023-03-11T09:03:31.803Z,91769.50
2023-03-11T09:05:59.186Z,91760.63
2023-03-11T09:08:26.396Z,91774.75
2023-03-11T09:10:53.313Z,91767.31
2023-03-11T09:13:20.416Z,91772.03
2023-03-11T09:15:49.849Z,91780.72
2023-03-11T09:18:17.868Z,91766.72
2023-03-11T09:20:45.412Z,91761.59
2023-03-11T09:23:14.462Z,91786.03
2023-03-11T09:25:41.626Z,91775.03
2023-03-11T09:28:08.721Z,91769.88
2023-03-11T09:30:36.121Z,91765.31
2023-03-11T09:33:04.646Z,91754.34
2023-03-11T09:35:31.662Z,91749.09
2023-03-11T09:37:58.629Z,91753.28
2023-03-11T09:40:28.375Z,91748.69
2023-03-11T09:43:05.396Z,91747.41
2023-03-11T09:45:34.962Z,91734.13
2023-03-11T09:48:10.842Z,91744.41
2023-03-11T09:50:43.892Z,91743.56
2023-03-11T09:53:19.020Z,91750.91
2023-03-11T09:55:47.728Z,91741.81
2023-03-11T09:58:21.868Z,91755.66
2023-03-11T10:00:52.105Z,91760.34
2023-03-11T10:03:39.901Z,91768.28
2023-03-11T10:06:14.474Z,91766.16
2023-03-11T10:08:44.036Z,91760.97
2023-03-11T10:11:22.704Z,91769.72
2023-03-11T10:13:54.939Z,91780.59
2023-03-11T10:16:25.931Z,91779.81
2023-03-11T10:18:59.962Z,91784.53
2023-03-11T10:21:39.240Z,91789.16
2023-03-11T10:24:32.217Z,91780.09
2023-03-11T10:27:00.822Z,91788.50
2023-03-11T10:29:30.093Z,91782.75
2023-03-11T10:32:01.409Z,91793.81
2023-03-11T10:34:34.401Z,91779.50
2023-03-11T10:37:04.180Z,91787.19
2023-03-11T10:39:31.922Z,91780.63
2023-03-11T10:42:00.882Z,91780.09
2023-03-11T10:44:29.994Z,91773.97
2023-03-11T10:46:56.923Z,91762.63
2023-03-11T10:49:23.894Z,91774.19
2023-03-11T10:51:53.522Z,91792.78
2023-03-11T10:54:24.156Z,91793.31
2023-03-11T10:56:55.706Z,91798.59
2023-03-11T10:59:26.485Z,91805.97
2023-03-11T11:01:58.092Z,91820.06
2023-03-11T11:04:31.370Z,91808.53
2023-03-11T11:07:20.565Z,91793.91
2023-03-11T11:09:47.780Z,91794.47
2023-03-11T11:12:16.079Z,91791.06
2023-03-11T11:14:44.683Z,91786.06
2023-03-11T11:17:20.110Z,91787.44
2023-03-11T11:19:48.136Z,91785.69
2023-03-11T11:22:18.531Z,91786.59
2023-03-11T11:24:46.467Z,91784.47
2023-03-11T11:27:17.889Z,91777.31
2023-03-11T11:29:45.606Z,91775.41
2023-03-11T11:32:22.078Z,91777.44
2023-03-11T11:34:59.547Z,91757.13
2023-03-11T11:37:32.209Z,91748.66
2023-03-11T11:40:02.016Z,91740.13
2023-03-11T11:42:30.163Z,91749.78
2023-03-11T11:44:57.952Z,91735.84
2023-03-11T11:47:26.829Z,91737.94
2023-03-11T11:49:55.774Z,91717.03
2023-03-11T11:52:25.265Z,91715.94
2023-03-11T11:54:57.870Z,91718.34
2023-03-11T11:57:25.093Z,91706.97
2023-03-11T11:59:52.019Z,91709.28
2023-03-11T12:02:40.765Z,91700.25
2023-03-11T12:05:10.674Z,91702.66
2023-03-11T12:07:49.373Z,91707.25
2023-03-11T12:10:26.362Z,91712.88
2023-03-11T12:13:13.976Z,91712.16
2023-03-11T12:15:43.109Z,91710.00
2023-03-11T12:18:15.857Z,91716.69
2023-03-11T12:20:44.652Z,91698.34
2023-03-11T12:23:19.139Z,91709.28
2023-03-11T12:26:12.342Z,91710.47
2023-03-11T12:28:43.914Z,91714.88
2023-03-11T12:31:12.584Z,91716.28
2023-03-11T12:33:41.567Z,91709.63
2023-03-11T12:36:21.939Z,91721.00
2023-03-11T12:38:49.399Z,91716.53
2023-03-11T12:41:33.613Z,91698.16
2023-03-11T12:44:04.143Z,91706.13
2023-03-11T12:47:04.733Z,91697.78
2023-03-11T12:49:32.656Z,91703.63
2023-03-11T12:52:05.444Z,91699.00
2023-03-11T12:54:34.402Z,91692.34
2023-03-11T12:57:04.020Z,91692.09
2023-03-11T12:59:55.149Z,91684.47
2023-03-11T13:02:31.659Z,91697.53
2023-03-11T13:05:00.170Z,91703.38
2023-03-11T13:07:47.303Z,91713.63
2023-03-11T13:10:18.098Z,91729.81
2023-03-11T13:12:47.886Z,91726.63
2023-03-11T13:15:31.426Z,91733.69
2023-03-11T13:17:59.987Z,91742.13
2023-03-11T13:20:49.379Z,91753.81
2023-03-11T13:23:36.493Z,91753.53
2023-03-11T13:26:31.667Z,91770.91
2023-03-11T13:29:27.753Z,91756.44
2023-03-11T13:32:04.547Z,91759.00
2023-03-11T13:34:40.489Z,91785.19
2023-03-11T13:37:17.662Z,91798.09
2023-03-11T13:39:55.035Z,91815.50
2023-03-11T13:42:30.702Z,91833.19
2023-03-11T13:44:59.990Z,91854.97
2023-03-11T13:47:27.646Z,91858.41
2023-03-11T13:50:00.351Z,91861.09
2023-03-11T13:52:29.785Z,91870.03
2023-03-11T13:55:01.555Z,91878.63
2023-03-11T13:57:30.293Z,91876.91
2023-03-11T14:00:03.978Z,91880.31
2023-03-11T14:02:37.355Z,91873.16
2023-03-11T14:05:07.116Z,91871.78
2023-03-11T14:07:35.505Z,91866.84
2023-03-11T14:10:20.350Z,91861.09
2023-03-11T14:12:47.591Z,91865.81
2023-03-11T14:15:18.983Z,91872.06
2023-03-11T14:17:48.605Z,91854.88
2023-03-11T14:20:17.595Z,91861.59
2023-03-11T14:22:45.052Z,91861.75
2023-03-11T14:25:18.282Z,91861.50
2023-03-11T14:27:50.634Z,91850.59
2023-03-11T14:30:25.232Z,91851.91
2023-03-11T14:33:00.699Z,91851.44
2023-03-11T14:35:28.277Z,91850.91
2023-03-11T14:37:55.326Z,91857.31
2023-03-11T14:40:26.123Z,91857.41
2023-03-11T14:42:54.947Z,91858.09
2023-03-11T14:45:24.658Z,91864.47
2023-03-11T14:47:54.597Z,91873.56
2023-03-11T14:50:24.463Z,91875.94
2023-03-11T14:52:53.143Z,91871.84
2023-03-11T14:55:22.388Z,91872.44
2023-03-11T14:57:52.453Z,91880.34
2023-03-11T15:00:23.735Z,91879.38
2023-03-11T15:03:01.754Z,91891.59
2023-03-11T15:05:35.122Z,91891.94
2023-03-11T15:08:03.762Z,91890.97
2023-03-11T15:10:30.901Z,91898.91
2023-03-11T15:13:06.406Z,91895.75
2023-03-11T15:15:34.833Z,91896.84
2023-03-11T15:18:02.159Z,91903.31
2023-03-11T15:20:31.639Z,91915.03
2023-03-11T15:23:03.340Z,91923.53
2023-03-11T15:25:33.263Z,91934.47
2023-03-11T15:28:00.834Z,91935.16
2023-03-11T15:30:30.073Z,91946.69
2023-03-11T15:32:58.993Z,91951.91
2023-03-11T15:35:27.707Z,91960.47
2023-03-11T15:38:12.759Z,91958.69
2023-03-11T15:40:45.578Z,91973.50
2023-03-11T15:43:28.655Z,91971.50
2023-03-11T15:45:57.251Z,91984.38
2023-03-11T15:48:27.864Z,92001.56
2023-03-11T15:50:56.420Z,92009.25
2023-03-11T15:53:23.778Z,92019.16
2023-03-11T15:55:52.087Z,92022.69
2023-03-11T15:58:20.374Z,92027.81
2023-03-11T16:00:49.173Z,92036.06
2023-03-11T16:03:16.522Z,92052.81
2023-03-11T16:05:44.975Z,92062.41
2023-03-11T16:08:11.718Z,92065.50
2023-03-11T16:10:39.360Z,92081.38
2023-03-11T16:13:06.619Z,92089.78
2023-03-11T16:15:35.160Z,92081.19
2023-03-11T16:18:02.413Z,92075.31
2023-03-11T16:20:31.533Z,92085.41
2023-03-11T16:23:01.793Z,92088.84
2023-03-11T16:25:31.250Z,92095.66
2023-03-11T16:27:58.587Z,92100.75
2023-03-11T16:30:29.302Z,92117.34
2023-03-11T16:32:56.731Z,92123.56
2023-03-11T16:35:23.995Z,92133.78
2023-03-11T16:37:51.199Z,92142.09
2023-03-11T16:40:21.511Z,92154.84
2023-03-11T16:42:48.653Z,92160.75
2023-03-11T16:45:17.112Z,92155.56
2023-03-11T16:47:44.045Z,92165.25
2023-03-11T16:50:12.222Z,92180.72
2023-03-11T16:52:39.496Z,92178.00
2023-03-11T16:55:07.159Z,92192.03
2023-03-11T16:57:36.429Z,92203.31
2023-03-11T17:00:05.685Z,92219.81
2023-03-11T17:02:33.292Z,92212.34
2023-03-11T17:05:00.365Z,92230.91
2023-03-11T17:07:27.551Z,92229.38
2023-03-11T17:09:54.516Z,92242.69
2023-03-11T17:12:23.190Z,92245.72
2023-03-11T17:14:52.031Z,92252.59
2023-03-11T17:17:19.284Z,92257.28
2023-03-11T17:19:46.479Z,92263.66
2023-03-11T17:22:13.766Z,92275.91
2023-03-11T17:24:41.063Z,92292.81
2023-03-11T17:27:07.989Z,92290.75
2023-03-11T17:29:35.054Z,92300.16
2023-03-11T17:32:03.802Z,92309.06
2023-03-11T17:34:30.840Z,92319.94
2023-03-11T17:36:57.874Z,92319.44
2023-03-11T17:39:24.931Z,92316.44
2023-03-11T17:41:52.246Z,92322.31
2023-03-11T17:44:19.224Z,92322.78
2023-03-11T17:46:47.570Z,92325.34
2023-03-11T17:49:15.951Z,92330.91
2023-03-11T17:51:42.913Z,92337.75
2023-03-11T17:54:09.812Z,92344.59
2023-03-11T17:56:36.827Z,92356.03
2023-03-11T17:59:03.737Z,92360.66
2023-03-11T18:01:30.731Z,92369.06
2023-03-11T18:03:57.818Z,92386.25
2023-03-11T18:06:26.096Z,92389.72
2023-03-11T18:08:53.123Z,92407.53
2023-03-11T18:11:21.736Z,92400.97
2023-03-11T18:13:49.272Z,92409.88
2023-03-11T18:16:18.140Z,92407.00
2023-03-11T18:18:45.515Z,92425.25
2023-03-11T18:21:13.581Z,92413.81
2023-03-11T18:23:42.635Z,92428.13
2023-03-11T18:26:12.573Z,92419.72
2023-03-11T18:28:39.689Z,92426.41
2023-03-11T18:31:07.650Z,92420.38
2023-03-11T18:33:34.614Z,92428.03
2023-03-11T18:36:11.517Z,92423.72
2023-03-11T18:38:38.500Z,92423.41
2023-03-11T18:41:06.833Z,92444.41
2023-03-11T18:43:33.779Z,92427.53
2023-03-11T18:46:01.486Z,92453.59
2023-03-11T18:48:28.694Z,92443.09
2023-03-11T18:50:56.090Z,92449.28
2023-03-11T18:53:25.023Z,92443.28
2023-03-11T18:55:52.547Z,92436.72
2023-03-11T18:58:20.799Z,92444.34
2023-03-11T19:00:47.925Z,92445.16
2023-03-11T19:03:15.052Z,92440.53
2023-03-11T19:05:48.925Z,92434.84
2023-03-11T19:08:17.227Z,92441.41
2023-03-11T19:10:44.266Z,92445.03
2023-03-11T19:13:11.263Z,92438.38
2023-03-11T19:15:40.926Z,92455.72
2023-03-11T19:18:08.452Z,92463.84
2023-03-11T19:20:35.611Z,92456.69
2023-03-11T19:23:02.618Z,92468.59
2023-03-11T19:25:29.559Z,92465.13
2023-03-11T19:27:57.036Z,92481.78
2023-03-11T19:30:24.288Z,92485.47
2023-03-11T19:32:53.036Z,92483.25
2023-03-11T19:35:21.254Z,92487.81
2023-03-11T19:37:48.407Z,92491.94
2023-03-11T19:40:15.963Z,92490.22
2023-03-11T19:42:43.139Z,92502.44
2023-03-11T19:45:10.989Z,92505.63
2023-03-11T19:47:38.392Z,92508.50
2023-03-11T19:50:07.701Z,92507.06
2023-03-11T19:52:36.053Z,92517.38
2023-03-11T19:55:03.587Z,92517.84
2023-03-11T19:57:30.608Z,92517.72
2023-03-11T19:59:57.532Z,92532.66
2023-03-11T20:02:24.713Z,92545.69
2023-03-11T20:04:51.860Z,92547.13
2023-03-11T20:07:20.238Z,92549.66
2023-03-11T20:09:47.319Z,92550.81
2023-03-11T20:12:14.307Z,92554.59
2023-03-11T20:14:41.929Z,92566.66
2023-03-11T20:17:09.195Z,92562.03
2023-03-11T20:19:36.467Z,92576.34
2023-03-11T20:22:03.562Z,92573.34
2023-03-11T20:24:32.127Z,92573.84
2023-03-11T20:26:59.091Z,92576.84
2023-03-11T20:29:26.069Z,92586.88
2023-03-11T20:31:53.313Z,92590.81
2023-03-11T20:34:20.427Z,92586.50
2023-03-11T20:36:48.504Z,92587.44
2023-03-11T20:39:15.491Z,92595.16
2023-03-11T20:41:43.960Z,92593.06
2023-03-11T20:44:13.047Z,92592.56
2023-03-11T20:46:40.337Z,92593.22
2023-03-11T20:49:07.359Z,92588.59
2023-03-11T20:51:34.464Z,92591.94
2023-03-11T20:54:01.393Z,92603.34
2023-03-11T20:56:28.630Z,92595.25
2023-03-11T20:58:59.265Z,92590.63
2023-03-11T21:01:28.685Z,92587.91
2023-03-11T21:03:57.167Z,92587.91
2023-03-11T21:06:25.935Z,92589.31
2023-03-11T21:08:53.608Z,92592.03
2023-03-11T21:11:20.562Z,92586.13
2023-03-11T21:13:47.702Z,92578.06
2023-03-11T21:16:16.215Z,92582.13
2023-03-11T21:18:44.458Z,92585.19
2023-03-11T21:21:11.846Z,92583.72
2023-03-11T21:23:39.587Z,92594.84
2023-03-11T21:26:07.113Z,92595.00
2023-03-11T21:28:34.885Z,92593.91
2023-03-11T21:31:04.286Z,92590.91
2023-03-11T21:33:32.773Z,92594.38
2023-03-11T21:36:00.784Z,92593.91
2023-03-11T21:38:28.304Z,92601.47
2023-03-11T21:41:04.913Z,92594.63
2023-03-11T21:43:31.976Z,92601.22
2023-03-11T21:45:59.005Z,92604.19
2023-03-11T21:48:26.338Z,92614.25
2023-03-11T21:50:54.783Z,92624.22
2023-03-11T21:53:21.938Z,92617.97
2023-03-11T21:55:48.919Z,92621.13
2023-03-11T21:58:16.088Z,92626.84
2023-03-11T22:00:43.246Z,92628.41
2023-03-11T22:03:10.606Z,92624.03
2023-03-11T22:05:37.738Z,92627.16
2023-03-11T22:08:06.405Z,92630.59
2023-03-11T22:10:33.741Z,92630.41
2023-03-11T22:13:00.959Z,92632.72
2023-03-11T22:15:28.163Z,92629.38
2023-03-11T22:17:55.293Z,92627.41
2023-03-11T22:23:09.164Z,92658.31
2023-03-11T22:25:36.621Z,92651.00
2023-03-11T22:28:04.149Z,92668.78
2023-03-11T22:30:31.588Z,92671.31
2023-03-11T22:32:58.621Z,92680.97
2023-03-11T22:35:25.812Z,92672.34
2023-03-11T22:37:52.885Z,92683.59
2023-03-11T22:40:21.231Z,92690.06
2023-03-11T22:42:48.186Z,92689.56
2023-03-11T22:45:15.285Z,92694.09
2023-03-11T22:47:42.195Z,92688.91
2023-03-11T22:50:10.192Z,92701.19
2023-03-11T22:52:37.385Z,92709.44
2023-03-11T22:55:04.728Z,92716.59
2023-03-11T22:57:38.791Z,92716.22
2023-03-11T23:00:17.033Z,92719.06
2023-03-11T23:02:44.691Z,92727.41
2023-03-11T23:05:12.063Z,92731.41
2023-03-11T23:07:39.077Z,92752.00
2023-03-11T23:10:07.780Z,92738.38
2023-03-11T23:12:36.236Z,92727.59
2023-03-11T23:15:04.270Z,92742.31
2023-03-11T23:17:31.181Z,92744.31
2023-03-11T23:19:58.178Z,92742.06
2023-03-11T23:22:25.351Z,92741.63
2023-03-11T23:24:52.478Z,92757.94
2023-03-11T23:27:19.565Z,92755.84
2023-03-11T23:29:48.093Z,92736.19
2023-03-11T23:32:15.086Z,92745.53
2023-03-11T23:34:42.064Z,92749.69
2023-03-11T23:37:08.986Z,92749.97
2023-03-11T23:39:35.870Z,92755.97
2023-03-11T23:42:11.803Z,92758.53
2023-03-11T23:44:51.027Z,92753.56
2023-03-11T23:47:18.227Z,92757.19
2023-03-11T23:49:45.130Z,92772.13
2023-03-11T23:52:12.100Z,92769.88
2023-03-11T23:54:39.109Z,92762.41
2023-03-11T23:57:06.124Z,92751.97
2023-03-11T23:59:33.200Z,92762.94
